Time;durP1;ratioP1;P1;durP2;ratioP2;P2;SDS_P1;SDS_P2;PMS_P1;PMS_P2;Temp;Humidity;BMP_temperature;BMP_pressure;BME280_temperature;BME280_humidity;BME280_pressure;Samples;Min_cycle;Max_cycle;Signal;HPM_P1;HPM_P2
2023/11/17 00:02:58;;;;;;;64.90;41.60;;;;;;;5.07;94.91;99563.30;129477;1270;128476;-65
2023/11/17 00:06:01;;;;;;;63.50;39.30;;;;;;;5.08;94.96;99565.21;129483;1273;114748;-62
2023/11/17 00:09:05;;;;;;;70.70;42.00;;;;;;;5.09;94.88;99566.77;129728;1262;115099;-64
2023/11/17 00:12:08;;;;;;;60.50;38.80;;;;;;;5.11;94.88;99568.11;129546;1262;114804;-65
2023/11/17 00:15:14;;;;;;;66.00;38.90;;;;;;;5.13;94.84;99568.05;129714;1264;114763;-62
2023/11/17 00:18:19;;;;;;;66.00;40.50;;;;;;;5.14;95.06;99561.27;129449;1271;130184;-62
2023/11/17 00:21:21;;;;;;;62.60;38.80;;;;;;;5.14;95.05;99557.54;129494;1264;114737;-62
2023/11/17 00:24:23;;;;;;;64.50;38.40;;;;;;;5.15;95.10;99555.20;129607;1261;114815;-62
2023/11/17 00:27:26;;;;;;;68.70;41.00;;;;;;;5.17;95.10;99554.08;129623;1263;114709;-65
2023/11/17 00:30:28;;;;;;;66.60;41.20;;;;;;;5.18;95.16;99552.09;129388;1267;114894;-65
2023/11/17 00:33:30;;;;;;;72.20;41.10;;;;;;;5.19;95.05;99552.78;129856;1263;114894;-62
2023/11/17 00:36:32;;;;;;;61.70;39.90;;;;;;;5.20;95.07;99552.93;129559;1262;114868;-62
2023/11/17 00:39:35;;;;;;;67.00;42.90;;;;;;;5.19;95.12;99550.98;129505;1262;129706;-63
2023/11/17 00:42:37;;;;;;;66.60;41.10;;;;;;;5.20;94.92;99552.91;129627;1263;114817;-63
2023/11/17 00:45:39;;;;;;;65.20;40.00;;;;;;;5.19;94.93;99552.07;129522;1262;114710;-62
2023/11/17 00:48:41;;;;;;;73.50;39.20;;;;;;;5.19;95.02;99556.65;129740;1281;114789;-63
2023/11/17 00:51:45;;;;;;;67.70;39.10;;;;;;;5.20;95.34;99562.98;129293;1281;114793;-63
2023/11/17 00:54:49;;;;;;;58.80;36.20;;;;;;;5.21;95.24;99560.48;129511;1263;114738;-65
2023/11/17 00:57:51;;;;;;;61.50;39.90;;;;;;;5.21;95.13;99562.42;129612;1263;128608;-62
2023/11/17 01:00:56;;;;;;;61.00;39.10;;;;;;;5.22;95.19;99562.73;129529;1263;114737;-62
2023/11/17 01:03:58;;;;;;;60.80;38.60;;;;;;;5.23;95.33;99561.64;129570;1272;114698;-64
2023/11/17 01:07:01;;;;;;;58.70;38.20;;;;;;;5.24;95.45;99564.60;129362;1274;116493;-62
2023/11/17 01:10:05;;;;;;;62.70;38.20;;;;;;;5.26;95.46;99565.24;129613;1273;114711;-65
2023/11/17 01:13:07;;;;;;;61.60;38.10;;;;;;;5.27;95.31;99561.48;129626;1281;114887;-64
2023/11/17 01:16:10;;;;;;;65.20;38.80;;;;;;;5.28;95.33;99559.49;129677;1281;114805;-63
2023/11/17 01:19:12;;;;;;;59.70;38.00;;;;;;;5.29;95.45;99561.20;129642;1273;115300;-65
2023/11/17 01:22:15;;;;;;;58.50;36.80;;;;;;;5.29;95.25;99561.58;129732;1281;114705;-65
2023/11/17 01:25:17;;;;;;;60.40;38.20;;;;;;;5.30;95.27;99564.56;129767;1263;114797;-62
2023/11/17 01:28:20;;;;;;;67.40;40.30;;;;;;;5.29;95.36;99568.11;129549;1263;114794;-62
2023/11/17 01:31:22;;;;;;;62.70;37.90;;;;;;;5.30;95.25;99571.83;129706;1270;116393;-62
2023/11/17 01:34:28;;;;;;;60.50;40.20;;;;;;;5.30;95.32;99571.45;129439;1265;128512;-62
2023/11/17 01:37:30;;;;;;;62.80;38.60;;;;;;;5.30;95.25;99571.13;129782;1281;115252;-64
2023/11/17 01:40:32;;;;;;;59.70;38.00;;;;;;;5.29;95.43;99570.59;129472;1271;114730;-64
2023/11/17 01:43:34;;;;;;;60.20;37.80;;;;;;;5.30;95.32;99575.55;129617;1264;114665;-63
2023/11/17 01:46:37;;;;;;;65.30;37.90;;;;;;;5.29;95.34;99571.66;129392;1264;115324;-62
2023/11/17 01:49:39;;;;;;;65.90;40.20;;;;;;;5.30;95.41;99568.63;129704;1266;114871;-62
2023/11/17 01:52:46;;;;;;;59.80;39.70;;;;;;;5.31;95.54;99570.18;129620;1263;115173;-64
2023/11/17 01:55:49;;;;;;;68.20;42.60;;;;;;;5.31;95.61;99568.19;129297;1281;115263;-64
2023/11/17 01:58:51;;;;;;;68.60;44.20;;;;;;;5.33;95.44;99572.38;129456;1263;114803;-63
2023/11/17 02:01:53;;;;;;;73.90;44.30;;;;;;;5.35;95.55;99572.15;129581;1260;114777;-62
2023/11/17 02:04:56;;;;;;;72.70;43.00;;;;;;;5.36;95.47;99570.52;129680;1264;114767;-61
2023/11/17 02:08:13;;;;;;;61.80;41.00;;;;;;;5.37;95.71;99566.93;129396;1265;114811;-63
2023/11/17 02:11:30;;;;;;;68.70;39.10;;;;;;;5.38;95.62;99564.95;129464;1263;127444;-63
2023/11/17 02:14:36;;;;;;;68.60;38.90;;;;;;;5.40;95.78;99567.86;129283;1263;115408;-62
2023/11/17 02:17:42;;;;;;;64.70;41.00;;;;;;;5.41;95.64;99569.27;129593;1281;114744;-62
2023/11/17 02:20:45;;;;;;;61.40;38.10;;;;;;;5.42;95.62;99569.22;129505;1274;114781;-61
2023/11/17 02:23:48;;;;;;;60.30;36.70;;;;;;;5.42;95.64;99570.61;129477;1264;114696;-63
2023/11/17 02:26:59;;;;;;;65.90;38.50;;;;;;;5.43;95.67;99571.09;129532;1276;114764;-62
2023/11/17 02:30:03;;;;;;;57.30;36.50;;;;;;;5.44;95.72;99572.48;129478;1263;114735;-64
2023/11/17 02:33:08;;;;;;;66.80;37.60;;;;;;;5.44;95.75;99575.84;129494;1264;115158;-62
2023/11/17 02:36:17;;;;;;;61.70;36.80;;;;;;;5.46;95.76;99581.09;129346;1281;114955;-64
2023/11/17 02:39:25;;;;;;;64.00;38.50;;;;;;;5.47;95.89;99579.79;129259;1278;115230;-64
2023/11/17 02:42:28;;;;;;;66.80;40.00;;;;;;;5.48;95.74;99584.55;129569;1281;128871;-62
2023/11/17 02:45:33;;;;;;;64.60;38.50;;;;;;;5.49;95.95;99585.75;129532;1273;114773;-61
2023/11/17 02:48:36;;;;;;;59.50;37.10;;;;;;;5.50;96.07;99589.98;129465;1273;114733;-63
2023/11/17 02:51:43;;;;;;;59.80;38.00;;;;;;;5.50;95.83;99591.55;129515;1271;115077;-65
2023/11/17 02:54:45;;;;;;;60.30;37.00;;;;;;;5.52;95.83;99600.53;129334;1281;114764;-61
2023/11/17 02:57:47;;;;;;;61.00;38.80;;;;;;;5.53;95.95;99604.90;129473;1281;114766;-65
2023/11/17 03:00:51;;;;;;;69.60;39.10;;;;;;;5.54;95.99;99607.14;129438;1281;114734;-64
2023/11/17 03:03:53;;;;;;;60.70;36.20;;;;;;;5.55;95.98;99610.13;129219;1264;115290;-64
2023/11/17 03:06:56;;;;;;;61.80;36.70;;;;;;;5.56;96.07;99612.05;129645;1266;115193;-62
2023/11/17 03:09:59;;;;;;;55.20;34.90;;;;;;;5.57;96.07;99609.88;129509;1266;115222;-62
2023/11/17 03:13:01;;;;;;;63.00;37.30;;;;;;;5.58;96.10;99612.48;129766;1264;114780;-61
2023/11/17 03:16:04;;;;;;;56.20;36.10;;;;;;;5.59;96.01;99611.92;129296;1281;114907;-63
2023/11/17 03:19:10;;;;;;;62.70;37.50;;;;;;;5.61;96.19;99619.46;129416;1265;114775;-62
2023/11/17 03:22:13;;;;;;;55.60;37.40;;;;;;;5.62;96.16;99622.27;129390;1264;115267;-62
2023/11/17 03:25:16;;;;;;;59.60;35.70;;;;;;;5.64;96.33;99624.30;129296;1267;114770;-64
2023/11/17 03:28:18;;;;;;;58.40;34.90;;;;;;;5.66;96.39;99625.11;129344;1261;114810;-63
2023/11/17 03:31:20;;;;;;;63.00;36.10;;;;;;;5.68;96.42;99625.03;129485;1265;114867;-62
2023/11/17 03:34:30;;;;;;;57.80;36.80;;;;;;;5.68;96.24;99625.03;129525;1264;114740;-62
2023/11/17 03:37:32;;;;;;;63.10;37.40;;;;;;;5.69;96.27;99627.84;129234;1281;127951;-63
2023/11/17 03:40:36;;;;;;;64.10;37.40;;;;;;;5.70;96.27;99634.86;129412;1281;114725;-63
2023/11/17 03:43:38;;;;;;;53.30;35.20;;;;;;;5.71;96.39;99630.90;129435;1263;115041;-63
2023/11/17 03:46:47;;;;;;;58.60;35.30;;;;;;;5.73;96.50;99637.21;129454;1263;114814;-63
2023/11/17 03:49:50;;;;;;;50.50;33.50;;;;;;;5.75;96.46;99638.21;129193;1267;114859;-62
2023/11/17 03:52:53;;;;;;;60.90;34.50;;;;;;;5.76;96.46;99638.55;129375;1260;115379;-62
2023/11/17 03:55:55;;;;;;;53.50;33.20;;;;;;;5.77;96.52;99638.29;129493;1261;114808;-64
2023/11/17 03:58:58;;;;;;;52.40;32.80;;;;;;;5.80;96.61;99638.02;129518;1272;114718;-62
2023/11/17 04:02:00;;;;;;;50.10;32.60;;;;;;;5.81;96.58;99635.48;129361;1260;114728;-61
2023/11/17 04:05:03;;;;;;;50.90;32.70;;;;;;;5.83;96.59;99636.50;129428;1264;114746;-62
2023/11/17 04:08:05;;;;;;;49.30;32.40;;;;;;;5.84;96.50;99636.80;129514;1258;114781;-63
2023/11/17 04:11:13;;;;;;;48.40;31.70;;;;;;;5.84;96.53;99631.46;129394;1258;114781;-63
2023/11/17 04:14:15;;;;;;;50.70;30.60;;;;;;;5.85;96.47;99633.55;129300;1263;115463;-63
2023/11/17 04:17:18;;;;;;;46.70;31.30;;;;;;;5.85;96.53;99641.34;129558;1258;114717;-62
2023/11/17 04:20:21;;;;;;;47.50;31.50;;;;;;;5.87;96.70;99637.19;129466;1264;114749;-64
2023/11/17 04:23:22;;;;;;;47.50;29.50;;;;;;;5.88;96.67;99640.52;129657;1264;114741;-61
2023/11/17 04:26:24;;;;;;;49.20;30.20;;;;;;;5.88;96.66;99640.33;129600;1266;114803;-61
2023/11/17 04:29:26;;;;;;;46.50;29.90;;;;;;;5.89;96.81;99641.89;129584;1258;114784;-63
2023/11/17 04:32:28;;;;;;;40.70;25.00;;;;;;;5.90;96.65;99644.70;129559;1263;115003;-63
2023/11/17 04:35:32;;;;;;;40.00;25.50;;;;;;;5.90;96.85;99647.53;129507;1258;115233;-63
2023/11/17 04:38:34;;;;;;;33.70;20.70;;;;;;;5.92;96.86;99651.18;129509;1263;115135;-61
2023/11/17 04:41:36;;;;;;;28.10;18.70;;;;;;;5.93;96.86;99657.15;129542;1262;114968;-61
2023/11/17 04:44:39;;;;;;;24.20;14.50;;;;;;;5.94;96.87;99658.20;129576;1264;114772;-61
2023/11/17 04:47:42;;;;;;;17.80;13.70;;;;;;;5.93;96.81;99664.25;129590;1264;114721;-62
2023/11/17 04:50:44;;;;;;;17.10;10.30;;;;;;;5.92;96.72;99669.23;129504;1281;129104;-62
2023/11/17 04:53:46;;;;;;;14.60;9.90;;;;;;;5.92;96.79;99668.35;129432;1264;114687;-61
2023/11/17 04:56:48;;;;;;;18.20;12.10;;;;;;;5.91;96.70;99674.41;129519;1263;114736;-62
2023/11/17 04:59:52;;;;;;;20.00;13.80;;;;;;;5.91;96.76;99678.34;129518;1263;114635;-63
2023/11/17 05:02:55;;;;;;;25.80;14.70;;;;;;;5.90;96.79;99683.69;129554;1262;115298;-62
2023/11/17 05:05:57;;;;;;;24.40;17.00;;;;;;;5.90;96.84;99685.45;129538;1263;114773;-65
2023/11/17 05:08:59;;;;;;;28.80;17.60;;;;;;;5.91;97.02;99690.72;129647;1257;114772;-65
2023/11/17 05:12:02;;;;;;;30.10;20.30;;;;;;;5.92;96.97;99693.70;129539;1264;129113;-62
2023/11/17 05:15:04;;;;;;;33.20;21.80;;;;;;;5.93;97.09;99693.67;129655;1257;114744;-62
2023/11/17 05:18:06;;;;;;;39.00;23.60;;;;;;;5.95;97.11;99698.91;129480;1257;114782;-62
2023/11/17 05:21:09;;;;;;;36.40;23.00;;;;;;;5.97;97.21;99705.91;129526;1264;115386;-62
2023/11/17 05:24:11;;;;;;;37.40;24.80;;;;;;;5.99;97.01;99708.69;129475;1264;116354;-62
2023/11/17 05:27:13;;;;;;;40.60;26.20;;;;;;;5.98;96.92;99712.08;129667;1257;114731;-62
2023/11/17 05:30:16;;;;;;;36.20;25.50;;;;;;;5.98;97.14;99710.30;129634;1257;114798;-62
2023/11/17 05:33:21;;;;;;;42.40;25.80;;;;;;;5.99;96.94;99716.30;129394;1281;128395;-62
2023/11/17 05:36:23;;;;;;;45.70;28.00;;;;;;;5.99;97.03;99715.42;129319;1281;115172;-61
2023/11/17 05:39:26;;;;;;;38.90;27.70;;;;;;;5.98;96.96;99714.02;129468;1264;115334;-62
2023/11/17 05:42:29;;;;;;;36.70;25.40;;;;;;;5.98;96.85;99714.23;129486;1257;114736;-61
2023/11/17 05:45:33;;;;;;;38.10;25.90;;;;;;;5.95;96.60;99719.83;129520;1263;114718;-63
2023/11/17 05:48:36;;;;;;;27.70;20.20;;;;;;;5.92;96.56;99719.05;129476;1271;115103;-62
2023/11/17 05:51:38;;;;;;;38.70;26.00;;;;;;;5.88;96.44;99726.64;129556;1263;114710;-63
2023/11/17 05:54:45;;;;;;;31.30;22.70;;;;;;;5.83;96.34;99729.16;129842;1262;114805;-62
2023/11/17 05:57:48;;;;;;;36.40;23.20;;;;;;;5.78;96.11;99732.36;129419;1264;114927;-61
2023/11/17 06:00:50;;;;;;;34.60;23.90;;;;;;;5.74;96.27;99737.13;129527;1258;114744;-61
2023/11/17 06:03:52;;;;;;;42.30;25.40;;;;;;;5.72;96.42;99736.30;129565;1271;115327;-63
2023/11/17 06:06:54;;;;;;;46.30;26.70;;;;;;;5.72;96.39;99746.59;129576;1262;114686;-62
2023/11/17 06:09:57;;;;;;;41.70;27.30;;;;;;;5.72;96.49;99749.44;129604;1261;129172;-62
2023/11/17 06:12:59;;;;;;;39.90;26.60;;;;;;;5.71;96.40;99748.56;129648;1260;114725;-63
2023/11/17 06:16:02;;;;;;;38.20;25.30;;;;;;;5.68;96.22;99753.13;129554;1259;114704;-64
2023/11/17 06:19:04;;;;;;;34.70;23.30;;;;;;;5.63;95.97;99753.47;129632;1264;114794;-61
2023/11/17 06:22:06;;;;;;;36.90;24.80;;;;;;;5.56;95.61;99757.09;129261;1263;114907;-64
2023/11/17 06:25:08;;;;;;;38.20;23.20;;;;;;;5.49;95.50;99761.26;129592;1263;115761;-64
2023/11/17 06:28:11;;;;;;;34.40;22.80;;;;;;;5.41;95.46;99766.86;129755;1271;114751;-63
2023/11/17 06:31:13;;;;;;;37.80;24.10;;;;;;;5.36;95.70;99778.57;129360;1270;128352;-61
2023/11/17 06:34:16;;;;;;;36.60;24.30;;;;;;;5.32;95.50;99780.47;129653;1257;114777;-63
2023/11/17 06:37:18;;;;;;;39.00;23.10;;;;;;;5.29;95.55;99785.55;129541;1262;115036;-62
2023/11/17 06:40:21;;;;;;;40.10;23.90;;;;;;;5.28;95.74;99791.79;129539;1262;115331;-62
2023/11/17 06:43:23;;;;;;;35.30;22.40;;;;;;;5.26;95.75;99802.81;129584;1281;114847;-63
2023/11/17 06:46:25;;;;;;;36.90;23.20;;;;;;;5.26;95.70;99804.08;129477;1257;114795;-64
2023/11/17 06:49:28;;;;;;;39.60;24.60;;;;;;;5.25;95.77;99806.77;129422;1263;114760;-63
2023/11/17 06:52:31;;;;;;;29.30;20.90;;;;;;;5.23;95.64;99815.13;129570;1264;114770;-64
2023/11/17 06:55:34;;;;;;;28.80;20.60;;;;;;;5.23;95.57;99813.92;129751;1261;115260;-62
2023/11/17 06:58:36;;;;;;;32.60;22.30;;;;;;;5.20;95.36;99817.03;129807;1259;114727;-61
2023/11/17 07:01:39;;;;;;;30.80;21.40;;;;;;;5.15;95.33;99821.27;129707;1263;114709;-61
2023/11/17 07:04:42;;;;;;;30.50;20.90;;;;;;;5.14;95.47;99832.45;129638;1258;115307;-63
2023/11/17 07:07:44;;;;;;;34.30;19.40;;;;;;;5.10;95.32;99844.27;129498;1258;114738;-63
2023/11/17 07:10:47;;;;;;;32.40;20.90;;;;;;;5.09;95.24;99860.78;129553;1262;114842;-62
2023/11/17 07:13:49;;;;;;;26.00;18.10;;;;;;;5.05;95.32;99868.15;129284;1267;114787;-64
2023/11/17 07:16:52;;;;;;;24.50;16.30;;;;;;;5.03;95.25;99870.19;129598;1257;114724;-65
2023/11/17 07:19:54;;;;;;;23.30;16.40;;;;;;;5.01;95.29;99873.25;129363;1266;114752;-64
2023/11/17 07:22:57;;;;;;;23.90;16.20;;;;;;;5.01;95.16;99874.66;129509;1262;114960;-62
2023/11/17 07:25:59;;;;;;;25.40;16.60;;;;;;;5.01;95.12;99880.32;129531;1273;114753;-66
2023/11/17 07:29:02;;;;;;;21.60;15.20;;;;;;;5.03;95.05;99886.29;129488;1258;114718;-64
2023/11/17 07:32:05;;;;;;;23.80;15.60;;;;;;;5.05;95.39;99890.98;129393;1262;114708;-63
2023/11/17 07:35:07;;;;;;;20.90;14.70;;;;;;;5.06;94.96;99892.36;129465;1262;114795;-62
2023/11/17 07:38:10;;;;;;;25.70;14.80;;;;;;;5.09;95.17;99897.08;129650;1262;114791;-62
2023/11/17 07:41:12;;;;;;;20.00;13.70;;;;;;;5.11;94.94;99905.86;129730;1262;114737;-62
2023/11/17 07:44:15;;;;;;;21.10;15.00;;;;;;;5.13;94.73;99904.19;129319;1257;114898;-64
2023/11/17 07:47:20;;;;;;;19.10;13.90;;;;;;;5.15;94.80;99905.86;130055;1257;114696;-62
2023/11/17 07:50:22;;;;;;;16.90;12.90;;;;;;;5.21;94.87;99909.40;129647;1281;128978;-64
2023/11/17 07:53:24;;;;;;;20.80;14.20;;;;;;;5.25;94.66;99908.92;129543;1263;114781;-64
2023/11/17 07:56:29;;;;;;;21.90;13.30;;;;;;;5.30;94.69;99916.89;129534;1258;114978;-62
2023/11/17 07:59:32;;;;;;;21.30;13.10;;;;;;;5.36;94.20;99921.66;129320;1267;114773;-62
2023/11/17 08:02:34;;;;;;;20.70;11.90;;;;;;;5.36;93.81;99926.61;129786;1258;114728;-64
2023/11/17 08:05:36;;;;;;;16.10;10.80;;;;;;;5.39;94.05;99932.15;129567;1257;114709;-64
2023/11/17 08:08:41;;;;;;;17.80;11.50;;;;;;;5.45;93.91;99937.11;129263;1260;114818;-64
2023/11/17 08:11:44;;;;;;;15.50;11.10;;;;;;;5.46;93.51;99941.52;129475;1281;128102;-64
2023/11/17 08:14:46;;;;;;;17.30;10.70;;;;;;;5.45;93.31;99947.02;129474;1259;115183;-64
2023/11/17 08:17:48;;;;;;;19.20;10.70;;;;;;;5.45;93.11;99953.40;129564;1257;115134;-62
2023/11/17 08:20:52;;;;;;;14.30;9.30;;;;;;;5.43;92.96;99955.77;129413;1258;115380;-61
2023/11/17 08:23:54;;;;;;;17.30;11.10;;;;;;;5.44;93.01;99960.35;129541;1263;114697;-63
2023/11/17 08:26:57;;;;;;;15.80;10.10;;;;;;;5.44;92.94;99962.66;129684;1263;114798;-65
2023/11/17 08:29:59;;;;;;;16.30;10.50;;;;;;;5.47;92.89;99964.83;129509;1258;115360;-61
2023/11/17 08:33:01;;;;;;;17.20;10.50;;;;;;;5.53;93.03;99963.59;129728;1262;114796;-62
2023/11/17 08:36:04;;;;;;;13.60;9.50;;;;;;;5.56;92.57;99966.13;129636;1261;115218;-62
2023/11/17 08:39:08;;;;;;;16.60;10.40;;;;;;;5.59;92.47;99972.77;129645;1262;115195;-65
2023/11/17 08:42:11;;;;;;;;;;;;;;;5.64;92.64;99979.31;129526;1257;114712;-65
2023/11/17 08:45:15;;;;;;;13.50;8.50;;;;;;;5.69;92.54;99988.73;129634;1281;114746;-64
2023/11/17 08:48:18;;;;;;;15.40;9.40;;;;;;;5.72;92.22;99996.95;129479;1276;115266;-63
2023/11/17 08:51:21;;;;;;;14.00;8.40;;;;;;;5.79;92.43;100005.58;129574;1262;114716;-63
2023/11/17 08:54:23;;;;;;;17.50;9.10;;;;;;;5.86;91.99;100008.00;129796;1262;114702;-64
2023/11/17 08:57:25;;;;;;;13.60;7.80;;;;;;;5.88;91.68;100010.05;127035;1259;3627166;-62
2023/11/17 09:00:29;;;;;;;9.50;7.20;;;;;;;5.89;91.30;100018.14;129542;1264;114754;-63
2023/11/17 09:03:32;;;;;;;15.70;8.60;;;;;;;5.88;90.52;100022.98;129609;1281;114732;-62
2023/11/17 09:06:34;;;;;;;12.80;7.30;;;;;;;5.80;90.12;100031.04;129804;1281;114766;-62
2023/11/17 09:09:36;;;;;;;9.80;7.00;;;;;;;5.72;89.83;100035.40;129833;1260;114781;-63
2023/11/17 09:12:42;;;;;;;11.60;6.90;;;;;;;5.67;89.80;100036.98;129764;1263;114780;-63
2023/11/17 09:15:45;;;;;;;6.70;5.50;;;;;;;5.60;89.18;100043.04;129859;1262;114692;-62
2023/11/17 09:18:47;;;;;;;7.20;5.80;;;;;;;5.48;88.75;100045.94;129724;1263;114725;-63
2023/11/17 09:21:49;;;;;;;10.40;7.00;;;;;;;5.39;88.86;100050.10;129574;1273;114814;-61
2023/11/17 09:24:51;;;;;;;5.30;4.60;;;;;;;5.35;88.68;100056.09;129786;1260;115654;-62
2023/11/17 09:27:56;;;;;;;6.00;4.70;;;;;;;5.28;88.48;100055.42;129561;1281;128617;-61
2023/11/17 09:31:00;;;;;;;6.00;5.00;;;;;;;5.23;88.47;100059.30;129573;1262;114719;-61
2023/11/17 09:34:03;;;;;;;6.10;4.20;;;;;;;5.22;88.71;100057.38;129740;1262;114747;-61
2023/11/17 09:37:07;;;;;;;5.60;4.20;;;;;;;5.22;88.36;100055.61;129480;1260;116354;-61
2023/11/17 09:40:10;;;;;;;5.60;4.80;;;;;;;5.18;87.97;100059.98;129423;1258;114855;-62
2023/11/17 09:43:18;;;;;;;6.40;5.70;;;;;;;5.15;88.03;100065.91;129942;1262;129200;-61
2023/11/17 09:46:22;;;;;;;9.90;6.40;;;;;;;5.17;88.12;100062.14;129356;1264;115224;-62
2023/11/17 09:49:28;;;;;;;8.00;5.70;;;;;;;5.22;88.20;100069.42;129649;1257;114770;-62
2023/11/17 09:52:30;;;;;;;12.00;7.10;;;;;;;5.28;88.26;100069.40;129234;1258;115483;-62
2023/11/17 09:55:32;;;;;;;9.30;6.80;;;;;;;5.37;88.58;100073.92;129535;1262;114733;-62
2023/11/17 09:58:36;;;;;;;8.60;7.10;;;;;;;5.44;88.38;100076.19;129425;1258;115081;-64
2023/11/17 10:01:38;;;;;;;10.40;6.10;;;;;;;5.51;88.50;100070.27;129535;1263;115163;-63
2023/11/17 10:04:41;;;;;;;8.60;6.70;;;;;;;5.60;88.21;100070.35;129545;1263;114783;-62
2023/11/17 10:07:48;;;;;;;9.60;6.60;;;;;;;5.68;87.88;100066.38;129479;1257;114801;-62
2023/11/17 10:10:50;;;;;;;7.80;5.40;;;;;;;5.73;87.73;100061.95;129258;1267;114810;-64
2023/11/17 10:13:54;;;;;;;8.10;5.30;;;;;;;5.80;87.64;100056.91;129581;1262;114799;-62
2023/11/17 10:16:58;;;;;;;6.60;5.10;;;;;;;5.88;87.56;100052.21;129582;1257;114766;-63
2023/11/17 10:20:03;;;;;;;5.10;4.50;;;;;;;5.98;87.48;100040.38;129245;1281;115246;-63
2023/11/17 10:23:06;;;;;;;7.70;5.30;;;;;;;6.04;87.50;100040.17;129382;1258;115300;-62
2023/11/17 10:26:07;;;;;;;9.60;5.90;;;;;;;6.11;87.49;100033.04;129848;1262;114793;-63
2023/11/17 10:29:10;;;;;;;7.50;6.10;;;;;;;6.17;87.25;100035.29;129775;1262;115166;-64
2023/11/17 10:32:13;;;;;;;10.20;7.80;;;;;;;6.19;87.05;100044.28;129592;1280;114719;-64
2023/11/17 10:35:23;;;;;;;12.30;7.60;;;;;;;6.22;87.26;100045.23;129276;1281;129619;-67
2023/11/17 10:38:26;;;;;;;8.60;7.00;;;;;;;6.24;86.65;100039.83;129756;1281;115253;-63
2023/11/17 10:41:32;;;;;;;10.00;7.30;;;;;;;6.23;86.65;100041.11;129859;1257;114769;-63
2023/11/17 10:44:38;;;;;;;8.80;6.50;;;;;;;6.18;86.10;100044.30;129815;1263;114801;-62
2023/11/17 10:47:40;;;;;;;12.40;7.80;;;;;;;6.15;86.40;100050.61;129294;1281;114844;-66
2023/11/17 10:50:43;;;;;;;13.50;8.20;;;;;;;6.12;86.47;100057.46;129449;1281;114817;-66
2023/11/17 10:54:17;;;;;;;13.90;8.10;;;;;;;6.08;86.35;100060.63;129540;1261;115117;-66
2023/11/17 10:57:20;;;;;;;11.30;8.30;;;;;;;6.07;86.47;100058.35;129334;1262;114910;-61
2023/11/17 11:00:27;;;;;;;11.10;7.90;;;;;;;6.05;86.49;100052.39;129281;1266;114883;-67
2023/11/17 11:03:29;;;;;;;9.60;7.80;;;;;;;6.04;86.64;100047.09;129442;1262;114723;-63
2023/11/17 11:06:38;;;;;;;9.70;7.80;;;;;;;6.01;86.61;100048.96;129542;1281;128941;-62
2023/11/17 11:09:40;;;;;;;7.90;6.50;;;;;;;5.98;86.55;100049.94;129430;1262;115186;-62
2023/11/17 11:12:45;;;;;;;7.60;6.50;;;;;;;5.92;86.29;100061.81;129432;1263;115148;-63
2023/11/17 11:15:58;;;;;;;9.10;6.50;;;;;;;5.84;85.67;100065.29;129518;1281;114853;-64
2023/11/17 11:19:02;;;;;;;6.80;6.00;;;;;;;5.73;85.52;100067.44;129311;1267;114917;-62
2023/11/17 11:22:05;;;;;;;6.40;5.80;;;;;;;5.67;85.52;100064.80;129322;1263;127617;-64
2023/11/17 11:25:11;;;;;;;7.70;6.60;;;;;;;5.66;85.93;100062.34;129509;1263;114745;-65
2023/11/17 11:28:14;;;;;;;7.70;6.60;;;;;;;5.65;85.75;100066.98;129527;1262;114811;-63
2023/11/17 11:31:17;;;;;;;9.40;7.30;;;;;;;5.63;85.81;100068.98;129328;1265;114741;-64
2023/11/17 11:34:19;;;;;;;8.00;7.10;;;;;;;5.61;85.49;100069.05;129500;1281;115327;-62
2023/11/17 11:37:23;;;;;;;10.60;7.90;;;;;;;5.62;85.87;100064.59;129446;1260;114777;-62
2023/11/17 11:40:26;;;;;;;8.70;7.90;;;;;;;5.66;85.93;100067.30;129566;1281;128870;-63
2023/11/17 11:43:30;;;;;;;12.40;9.20;;;;;;;5.69;86.08;100065.61;129352;1280;114785;-62
2023/11/17 11:46:35;;;;;;;11.00;8.40;;;;;;;5.69;85.80;100069.86;129534;1257;114827;-61
2023/11/17 11:49:37;;;;;;;12.50;8.50;;;;;;;5.66;85.70;100073.67;129251;1264;114841;-62
2023/11/17 11:53:07;;;;;;;14.50;9.10;;;;;;;5.63;85.46;100074.66;129474;1263;115692;-62
2023/11/17 11:56:14;;;;;;;11.20;7.70;;;;;;;5.60;85.40;100078.13;128729;1287;128629;-62
2023/11/17 11:59:16;;;;;;;19.90;12.20;;;;;;;5.56;85.33;100071.34;129005;1267;115196;-62
2023/11/17 12:02:19;;;;;;;10.60;7.10;;;;;;;5.56;85.26;100073.84;128938;1268;115328;-62
2023/11/17 12:05:28;;;;;;;10.10;7.10;;;;;;;5.54;85.09;100077.46;129004;1265;115475;-63
2023/11/17 12:08:32;;;;;;;6.80;5.40;;;;;;;5.52;84.92;100077.50;128933;1268;115210;-62
2023/11/17 12:11:44;;;;;;;9.60;7.30;;;;;;;5.53;85.16;100076.60;128861;1288;129979;-63
2023/11/17 12:14:46;;;;;;;7.10;5.40;;;;;;;5.56;85.09;100074.20;129014;1287;115263;-63
2023/11/17 12:17:58;;;;;;;7.70;6.50;;;;;;;5.58;85.03;100074.83;129026;1265;115414;-63
2023/11/17 12:21:16;;;;;;;6.20;5.40;;;;;;;5.61;85.13;100079.88;129067;1265;114787;-62
2023/11/17 12:24:23;;;;;;;6.30;5.00;;;;;;;5.65;85.08;100078.31;128798;1288;114817;-62
2023/11/17 12:27:26;;;;;;;6.60;5.40;;;;;;;5.71;85.14;100082.04;128779;1287;129198;-62
2023/11/17 12:30:28;;;;;;;7.20;6.00;;;;;;;5.76;85.20;100082.73;128990;1264;114965;-62
2023/11/17 12:33:31;;;;;;;7.60;6.20;;;;;;;5.81;85.29;100083.84;129312;1267;114841;-62
2023/11/17 12:36:34;;;;;;;10.20;7.90;;;;;;;5.86;85.11;100085.23;129627;1262;114778;-62
2023/11/17 12:39:41;;;;;;;9.40;6.00;;;;;;;5.86;84.65;100081.17;129455;1258;116483;-62
2023/11/17 12:42:44;;;;;;;9.10;6.60;;;;;;;5.84;84.52;100084.27;129531;1281;114930;-62
2023/11/17 12:45:47;;;;;;;7.70;6.20;;;;;;;5.82;84.43;100086.61;129882;1258;128446;-65
2023/11/17 12:48:49;;;;;;;9.60;7.40;;;;;;;5.82;84.50;100084.33;129626;1258;114835;-62
2023/11/17 12:51:51;;;;;;;8.90;6.20;;;;;;;5.82;84.57;100084.69;129647;1262;115298;-63
2023/11/17 12:55:08;;;;;;;6.10;5.30;;;;;;;5.81;84.46;100082.92;129717;1281;114710;-65
2023/11/17 12:58:12;;;;;;;8.60;5.80;;;;;;;5.80;84.42;100085.45;129517;1258;114784;-66
2023/11/17 13:01:19;;;;;;;9.80;6.10;;;;;;;5.76;84.18;100088.95;129730;1260;114722;-63
2023/11/17 13:04:25;;;;;;;8.40;5.40;;;;;;;5.72;84.00;100089.41;129564;1281;129875;-62
2023/11/17 13:07:27;;;;;;;7.90;5.70;;;;;;;5.70;84.09;100090.55;129558;1281;115381;-65
2023/11/17 13:10:30;;;;;;;7.30;5.90;;;;;;;5.68;84.06;100090.63;129596;1260;114691;-62
2023/11/17 13:14:03;;;;;;;8.30;5.70;;;;;;;5.66;84.05;100091.58;129686;1262;114739;-62
2023/11/17 13:17:07;;;;;;;6.70;5.40;;;;;;;5.65;84.02;100101.36;129577;1262;114793;-63
2023/11/17 13:20:20;;;;;;;5.70;4.90;;;;;;;5.66;84.57;100108.25;129278;1262;127647;-63
2023/11/17 13:23:23;;;;;;;6.00;4.70;;;;;;;5.67;84.26;100116.37;129476;1260;115169;-65
2023/11/17 13:26:26;;;;;;;6.00;5.10;;;;;;;5.62;83.89;100116.52;129550;1263;114719;-65
2023/11/17 13:29:29;;;;;;;5.80;4.60;;;;;;;5.58;83.91;100110.42;129545;1258;114736;-62
2023/11/17 13:32:48;;;;;;;6.70;5.20;;;;;;;5.57;84.17;100114.20;129675;1257;115167;-62
2023/11/17 13:35:50;;;;;;;4.00;3.60;;;;;;;5.58;84.23;100121.42;129466;1278;128443;-62
2023/11/17 13:39:18;;;;;;;5.70;4.40;;;;;;;5.57;84.03;100120.73;129833;1281;115174;-63
2023/11/17 13:42:20;;;;;;;9.20;4.50;;;;;;;5.55;83.93;100128.08;129316;1268;115034;-62
2023/11/17 13:45:24;;;;;;;7.50;4.80;;;;;;;5.53;84.29;100130.63;129594;1281;115250;-62
2023/11/17 13:48:26;;;;;;;5.80;4.90;;;;;;;5.54;84.27;100135.56;129516;1281;115001;-62
2023/11/17 13:51:32;;;;;;;7.40;5.20;;;;;;;5.54;84.56;100140.67;129526;1273;114702;-63
2023/11/17 13:54:35;;;;;;;7.00;5.50;;;;;;;5.55;84.55;100143.30;129473;1281;115158;-62
2023/11/17 13:57:37;;;;;;;16.20;8.10;;;;;;;5.56;84.55;100148.05;129612;1260;114792;-62
2023/11/17 14:00:40;;;;;;;20.70;12.60;;;;;;;5.54;84.41;100147.40;129839;1259;115235;-62